Time;durP1;ratioP1;P1;durP2;ratioP2;P2;SDS_P1;SDS_P2;PMS_P1;PMS_P2;Temp;Humidity;BMP_temperature;BMP_pressure;BME280_temperature;BME280_humidity;BME280_pressure;Samples;Min_cycle;Max_cycle;Signal;HPM_P1;HPM_P2
2022/12/30 00:00:27;;;;;;;35.85;24.63;;;;;;;1.94;72.77;99889.95;1822646;78;21075;-76
2022/12/30 00:02:53;;;;;;;23.60;16.48;;;;;;;1.90;72.79;99893.25;1836253;78;21140;-76
2022/12/30 00:05:20;;;;;;;22.48;14.15;;;;;;;1.89;72.95;99890.29;1836117;78;22128;-73
2022/12/30 00:07:46;;;;;;;27.85;21.68;;;;;;;1.90;73.18;99893.25;1836335;78;21012;-75
2022/12/30 00:10:12;;;;;;;25.68;15.65;;;;;;;1.89;73.28;99893.36;1836502;78;20992;-76
2022/12/30 00:35:08;;;;;;;20.60;13.58;;;;;;;1.96;73.67;99905.09;1803735;79;21022;-73
2022/12/30 00:37:34;;;;;;;19.35;13.93;;;;;;;1.92;73.86;99904.95;1803272;79;21083;-74
2022/12/30 00:40:01;;;;;;;19.65;14.93;;;;;;;1.87;74.20;99902.63;1803677;79;21028;-73
2022/12/30 00:45:13;;;;;;;21.35;13.83;;;;;;;1.84;74.66;99898.94;1771761;81;21051;-74
2022/12/30 00:47:40;;;;;;;22.15;14.65;;;;;;;1.82;74.90;99898.69;1771772;81;21015;-73
2022/12/30 01:00:49;;;;;;;25.00;16.07;;;;;;;1.87;75.35;99882.16;1764247;80;22701;-74
2022/12/30 01:03:16;;;;;;;20.72;14.15;;;;;;;1.82;75.36;99885.11;1725651;83;21038;-73
2022/12/30 01:05:42;;;;;;;25.65;15.70;;;;;;;1.82;75.42;99896.07;1724336;83;22162;-72
2022/12/30 01:08:09;;;;;;;22.77;14.87;;;;;;;1.84;75.33;99888.45;1725405;82;20982;-74
2022/12/30 01:10:39;;;;;;;20.08;13.95;;;;;;;1.85;75.38;99889.28;1725137;83;21529;-73
2022/12/30 01:13:07;;;;;;;22.67;15.60;;;;;;;1.90;75.34;99887.19;1733895;82;21054;-74
2022/12/30 01:15:34;;;;;;;19.90;13.50;;;;;;;1.89;75.38;99886.81;1733982;82;20942;-73
2022/12/30 01:18:00;;;;;;;22.30;15.65;;;;;;;1.90;75.38;99881.47;1734170;82;21498;-72
2022/12/30 01:20:27;;;;;;;20.30;13.58;;;;;;;1.88;75.45;99883.36;1734043;82;20918;-72
2022/12/30 01:22:54;;;;;;;20.75;14.60;;;;;;;1.88;75.59;99891.70;1732984;82;20981;-71
2022/12/30 01:25:20;;;;;;;20.85;12.93;;;;;;;1.89;75.57;99876.33;1734111;82;21045;-71
2022/12/30 01:27:51;;;;;;;22.85;14.13;;;;;;;1.88;75.53;99882.05;1734022;82;21022;-72
2022/12/30 01:30:17;;;;;;;18.37;12.93;;;;;;;1.91;75.49;99889.70;1734013;82;21145;-73
2022/12/30 01:32:44;;;;;;;18.50;12.95;;;;;;;1.89;75.58;99880.26;1734001;82;21029;-73
2022/12/30 01:35:11;;;;;;;19.62;13.13;;;;;;;1.91;75.24;99895.39;1734164;82;21041;-70
2022/12/30 01:37:38;;;;;;;20.57;14.65;;;;;;;1.96;75.18;99880.20;1734097;82;21030;-72
2022/12/30 01:40:06;;;;;;;28.40;19.50;;;;;;;1.94;75.05;99888.16;1733130;82;21112;-71
2022/12/30 01:42:38;;;;;;;27.02;21.00;;;;;;;1.95;75.10;99891.61;1734018;82;21545;-73
2022/12/30 01:45:20;;;;;;;23.00;16.37;;;;;;;1.95;75.07;99878.51;1734061;82;21077;-72
2022/12/30 01:48:10;;;;;;;28.05;16.57;;;;;;;1.94;75.18;99878.16;1734161;82;21061;-72
2022/12/30 01:50:48;;;;;;;28.92;20.30;;;;;;;1.94;75.11;99867.68;1735658;82;21030;-72
2022/12/30 01:53:23;;;;;;;25.82;17.52;;;;;;;1.89;75.30;99870.64;1734888;82;21029;-71
2022/12/30 01:55:59;;;;;;;25.40;16.50;;;;;;;1.88;75.32;99869.44;1732564;81;21212;-72
2022/12/30 01:58:36;;;;;;;27.65;15.98;;;;;;;1.93;75.32;99886.50;1704651;84;21615;-71
2022/12/30 02:01:04;;;;;;;30.90;19.37;;;;;;;1.91;75.36;99876.61;1704609;83;21636;-72
2022/12/30 02:03:39;;;;;;;23.95;16.15;;;;;;;1.95;75.40;99882.44;1704681;83;21018;-73
2022/12/30 02:06:05;;;;;;;25.75;15.63;;;;;;;1.93;75.47;99880.41;1705037;84;21540;-72
2022/12/30 02:08:34;;;;;;;27.22;15.40;;;;;;;2.00;75.38;99864.61;1722542;82;21162;-72
2022/12/30 02:11:00;;;;;;;25.88;18.62;;;;;;;2.08;75.13;99863.58;1733783;82;21550;-71
2022/12/30 02:13:26;;;;;;;28.73;18.20;;;;;;;2.07;75.18;99859.78;1690507;82;21545;-72
2022/12/30 02:16:22;;;;;;;23.60;16.12;;;;;;;2.03;75.28;99860.92;1733468;82;21065;-74
2022/12/30 02:19:32;;;;;;;26.68;16.95;;;;;;;2.02;75.34;99856.16;1733217;82;21018;-72
2022/12/30 02:22:42;;;;;;;22.70;16.20;;;;;;;1.99;75.52;99847.23;1733505;82;21099;-72
2022/12/30 02:25:55;;;;;;;26.15;17.17;;;;;;;1.99;75.60;99855.09;1714231;82;21042;-73
2022/12/30 02:28:48;;;;;;;28.75;15.25;;;;;;;2.00;75.64;99856.75;1704361;83;21092;-71
2022/12/30 02:31:29;;;;;;;20.70;14.65;;;;;;;1.96;75.67;99860.06;1705223;82;21080;-75
2022/12/30 02:34:10;;;;;;;24.77;15.45;;;;;;;1.97;75.71;99855.68;1704231;84;21049;-73
2022/12/30 02:37:04;;;;;;;21.05;15.05;;;;;;;1.94;75.83;99854.58;1674657;83;22838;-74
2022/12/30 02:39:39;;;;;;;21.97;14.93;;;;;;;2.00;75.68;99857.23;1704403;84;21073;-72
2022/12/30 02:45:20;;;;;;;19.80;14.50;;;;;;;2.08;75.34;99857.52;1712577;81;21045;-74
2022/12/30 02:47:51;;;;;;;20.75;14.33;;;;;;;2.08;75.27;99854.41;1720033;82;21033;-75
2022/12/30 02:53:06;;;;;;;23.07;14.63;;;;;;;2.12;74.99;99845.38;1725359;82;21014;-76
2022/12/30 02:55:33;;;;;;;25.00;15.95;;;;;;;2.18;74.92;99851.13;1733640;82;21455;-78
2022/12/30 02:57:59;;;;;;;22.85;15.32;;;;;;;2.19;74.79;99845.78;1733652;82;21010;-77
2022/12/30 03:07:57;;;;;;;18.00;13.38;;;;;;;2.26;74.50;99846.16;1740584;81;21497;-75
2022/12/30 03:13:45;;;;;;;22.82;16.62;;;;;;;2.34;74.20;99841.20;1749585;82;21022;-75
2022/12/30 03:16:53;;;;;;;22.52;16.97;;;;;;;2.39;74.16;99845.61;1749468;82;21003;-75
2022/12/30 03:19:22;;;;;;;20.00;14.20;;;;;;;2.41;74.05;99842.41;1754023;81;21212;-75
2022/12/30 03:21:51;;;;;;;20.17;14.58;;;;;;;2.48;73.88;99846.25;1753970;81;21537;-74
2022/12/30 03:27:09;;;;;;;24.07;17.25;;;;;;;2.59;73.34;99855.96;1751337;82;21023;-76
2022/12/30 03:29:49;;;;;;;23.60;15.40;;;;;;;2.61;73.41;99853.20;1752079;82;21054;-75
2022/12/30 03:32:18;;;;;;;22.75;16.87;;;;;;;2.63;73.27;99864.44;1757368;81;20971;-74
2022/12/30 03:34:46;;;;;;;21.37;14.58;;;;;;;2.66;73.29;99855.84;1756273;81;21537;-74
2022/12/30 03:37:31;;;;;;;23.05;15.00;;;;;;;2.73;73.06;99874.60;1755710;81;21037;-76
2022/12/30 03:40:03;;;;;;;21.68;15.65;;;;;;;2.78;72.88;99855.39;1730100;81;21045;-75
2022/12/30 03:42:30;;;;;;;22.37;16.50;;;;;;;2.80;72.78;99869.27;1756548;81;21014;-76
2022/12/30 03:44:56;;;;;;;23.57;16.77;;;;;;;2.81;72.83;99866.16;1731939;81;21993;-75
2022/12/30 03:47:23;;;;;;;24.00;15.90;;;;;;;2.80;72.86;99864.47;1725267;83;21541;-75
2022/12/30 03:49:49;;;;;;;22.65;15.13;;;;;;;2.77;72.95;99866.03;1725247;83;21581;-75
2022/12/30 03:52:20;;;;;;;25.95;17.37;;;;;;;2.75;73.02;99880.09;1732944;81;21437;-74
2022/12/30 03:54:50;;;;;;;21.30;16.25;;;;;;;2.74;73.21;99878.42;1749522;81;21005;-72
2022/12/30 03:57:17;;;;;;;22.55;14.98;;;;;;;2.78;73.24;99870.31;1737957;81;21569;-74
2022/12/30 03:59:44;;;;;;;21.87;14.38;;;;;;;2.76;73.22;99874.35;1724945;83;21132;-72
2022/12/30 04:02:10;;;;;;;19.50;13.80;;;;;;;2.77;73.34;99877.35;1725019;83;21142;-76
2022/12/30 04:04:37;;;;;;;20.60;14.60;;;;;;;2.79;73.32;99874.62;1725087;83;21033;-74
2022/12/30 04:07:03;;;;;;;22.45;15.18;;;;;;;2.82;73.23;99877.00;1725200;83;21501;-73
2022/12/30 04:09:30;;;;;;;20.70;14.13;;;;;;;2.80;73.32;99878.45;1737736;81;21822;-74
2022/12/30 04:11:58;;;;;;;19.45;13.72;;;;;;;2.90;73.34;99880.73;1752735;81;21021;-73
2022/12/30 04:14:24;;;;;;;23.42;15.25;;;;;;;3.00;73.02;99880.05;1725180;83;21060;-73
2022/12/30 04:16:52;;;;;;;21.62;15.90;;;;;;;2.95;72.96;99879.92;1724936;83;21093;-72
2022/12/30 04:19:19;;;;;;;21.52;14.80;;;;;;;2.94;73.01;99877.41;1725188;83;21055;-73
2022/12/30 04:21:45;;;;;;;20.97;15.18;;;;;;;2.88;73.18;99873.45;1752965;81;21133;-71
2022/12/30 04:24:13;;;;;;;19.55;13.65;;;;;;;2.83;73.42;99874.27;1747322;81;21051;-73
2022/12/30 04:26:39;;;;;;;19.00;13.18;;;;;;;2.95;73.25;99874.67;1747888;81;21011;-72
2022/12/30 04:29:07;;;;;;;18.32;13.32;;;;;;;2.98;73.10;99879.33;1744889;81;21571;-76
2022/12/30 04:31:34;;;;;;;21.02;14.05;;;;;;;2.95;73.37;99870.73;1736856;81;21123;-80
2022/12/30 04:34:01;;;;;;;20.57;14.38;;;;;;;2.92;73.39;99870.95;1724871;83;21137;-76
2022/12/30 04:36:27;;;;;;;23.77;15.45;;;;;;;2.92;73.39;99870.95;1748637;81;21010;-78
2022/12/30 04:38:54;;;;;;;30.88;21.27;;;;;;;2.89;73.55;99865.09;1755081;81;21049;-76
2022/12/30 04:41:20;;;;;;;25.45;16.55;;;;;;;2.88;73.64;99864.75;1755103;81;21573;-78
2022/12/30 04:43:47;;;;;;;26.57;16.60;;;;;;;2.93;73.75;99857.34;1757177;80;21112;-78
2022/12/30 04:46:14;;;;;;;66.82;52.73;;;;;;;3.02;73.47;99865.02;1754114;81;21244;-79
2022/12/30 04:48:41;;;;;;;60.67;45.43;;;;;;;3.00;73.57;99861.67;1753665;81;21054;-78
2022/12/30 04:51:07;;;;;;;37.40;28.75;;;;;;;2.95;73.74;99872.50;1753934;81;21013;-79
2022/12/30 04:53:33;;;;;;;28.27;18.50;;;;;;;2.91;74.02;99862.70;1754862;81;21016;-77
2022/12/30 04:56:00;;;;;;;20.30;15.35;;;;;;;2.89;74.22;99863.78;1755288;81;21031;-77
2022/12/30 04:58:27;;;;;;;23.32;15.30;;;;;;;2.99;74.17;99864.75;1755589;80;21288;-75
2022/12/30 05:00:53;;;;;;;29.90;16.50;;;;;;;3.03;73.85;99870.61;1749552;81;21010;-77
2022/12/30 05:03:19;;;;;;;26.57;19.67;;;;;;;3.00;73.91;99861.67;1746567;82;21495;-74
2022/12/30 05:05:47;;;;;;;26.52;18.82;;;;;;;2.89;74.20;99860.67;1748738;82;21018;-78
2022/12/30 05:08:14;;;;;;;27.80;16.97;;;;;;;2.89;74.20;99860.67;1749114;82;21034;-74
2022/12/30 05:10:40;;;;;;;26.23;16.50;;;;;;;2.87;74.53;99862.58;1748029;82;21150;-71
2022/12/30 05:13:07;;;;;;;38.40;28.60;;;;;;;2.99;74.38;99864.75;1749163;82;21450;-73
2022/12/30 05:15:34;;;;;;;33.28;22.90;;;;;;;3.00;74.26;99861.67;1749663;82;20995;-73
2022/12/30 05:18:00;;;;;;;26.35;18.32;;;;;;;2.96;74.31;99858.44;1748519;82;21050;-73
2022/12/30 05:20:27;;;;;;;26.95;17.73;;;;;;;2.91;74.67;99864.50;1738704;82;21058;-72
2022/12/30 05:22:55;;;;;;;27.52;17.80;;;;;;;2.91;74.67;99864.50;1747345;81;22362;-75
2022/12/30 05:28:06;;;;;;;28.77;16.93;;;;;;;3.06;74.53;99855.95;1747459;82;21042;-74
2022/12/30 05:30:34;;;;;;;25.27;17.70;;;;;;;3.05;74.34;99849.02;1733349;82;21101;-71
2022/12/30 05:33:00;;;;;;;26.12;17.90;;;;;;;2.97;74.52;99848.28;1736322;82;21168;-73
2022/12/30 05:35:26;;;;;;;36.10;23.80;;;;;;;2.93;74.61;99857.34;1741461;82;21482;-72
2022/12/30 05:37:53;;;;;;;30.05;18.80;;;;;;;2.88;74.75;99859.50;1746415;82;21015;-74
2022/12/30 05:40:20;;;;;;;23.25;15.23;;;;;;;2.85;74.96;99863.17;1745681;82;21054;-74
2022/12/30 05:42:47;;;;;;;25.65;18.37;;;;;;;2.97;74.76;99865.83;1747045;82;21609;-74
2022/12/30 05:45:14;;;;;;;29.12;22.65;;;;;;;2.99;74.55;99858.67;1747564;82;21026;-71
2022/12/30 05:47:40;;;;;;;31.52;19.65;;;;;;;2.93;74.72;99858.17;1747461;82;21146;-75
2022/12/30 05:50:08;;;;;;;25.65;16.95;;;;;;;2.83;75.09;99870.33;1732701;82;21549;-76
2022/12/30 05:52:35;;;;;;;29.98;17.45;;;;;;;2.83;75.24;99865.08;1744687;82;21104;-76
2022/12/30 05:55:01;;;;;;;24.05;14.65;;;;;;;2.83;75.24;99865.08;1731937;82;21023;-75
2022/12/30 05:57:28;;;;;;;26.37;16.12;;;;;;;2.95;74.94;99879.92;1727398;82;21093;-75
2022/12/30 05:59:54;;;;;;;24.15;15.55;;;;;;;2.94;74.94;99877.41;1747534;82;21928;-76
2022/12/30 06:02:21;;;;;;;30.50;18.15;;;;;;;2.90;75.03;99885.16;1706271;81;21045;-72
2022/12/30 06:04:48;;;;;;;25.25;17.77;;;;;;;2.84;75.29;99885.13;1704209;83;21021;-75
2022/12/30 06:07:14;;;;;;;24.92;16.90;;;;;;;2.79;75.40;99885.94;1704313;82;21513;-66
2022/12/30 06:09:41;;;;;;;26.25;16.80;;;;;;;2.88;75.32;99901.48;1710667;82;21431;-69
2022/12/30 06:12:07;;;;;;;30.52;18.42;;;;;;;2.88;75.32;99901.48;1707290;82;21170;-67
2022/12/30 06:14:34;;;;;;;31.37;19.90;;;;;;;2.81;75.46;99898.47;1703579;82;21428;-68
2022/12/30 06:17:01;;;;;;;34.60;18.37;;;;;;;2.81;75.46;99898.47;1704350;82;21057;-70
2022/12/30 06:19:27;;;;;;;34.48;19.65;;;;;;;2.77;75.48;99897.52;1708106;81;21025;-69
2022/12/30 06:21:54;;;;;;;49.90;35.08;;;;;;;2.71;75.81;99892.24;1704170;84;21143;-69
2022/12/30 06:24:20;;;;;;;41.02;24.72;;;;;;;2.74;76.03;99896.80;1704117;84;21234;-68
2022/12/30 06:26:48;;;;;;;35.85;20.05;;;;;;;2.84;75.81;99906.58;1723377;81;21085;-68
2022/12/30 06:29:15;;;;;;;31.97;19.87;;;;;;;2.81;75.75;99914.21;1704868;82;21489;-66
2022/12/30 06:31:41;;;;;;;32.00;22.17;;;;;;;2.79;75.81;99910.04;1705993;82;21010;-67
2022/12/30 06:34:08;;;;;;;27.55;19.05;;;;;;;2.78;75.87;99914.42;1703725;82;21112;-66
2022/12/30 06:36:35;;;;;;;30.17;18.45;;;;;;;2.80;76.01;99924.81;1704603;82;21165;-69
2022/12/30 06:39:01;;;;;;;33.45;20.35;;;;;;;2.88;75.69;99914.12;1706635;82;21026;-68
2022/12/30 06:41:28;;;;;;;32.23;22.32;;;;;;;2.82;75.81;99933.41;1721176;82;21084;-70
2022/12/30 06:43:55;;;;;;;28.75;19.75;;;;;;;2.82;75.81;99933.41;1731463;81;21058;-67
2022/12/30 06:46:21;;;;;;;24.50;17.57;;;;;;;2.79;76.08;99917.91;1715977;82;21033;-68
2022/12/30 06:48:48;;;;;;;30.17;18.15;;;;;;;2.95;75.65;99916.66;1709834;82;21289;-74
2022/12/30 06:51:14;;;;;;;27.48;18.62;;;;;;;2.95;75.65;99916.66;1724535;81;21069;-71
2022/12/30 06:53:41;;;;;;;28.12;18.30;;;;;;;2.95;75.58;99919.73;1703666;82;21101;-73
2022/12/30 06:56:07;;;;;;;24.75;17.65;;;;;;;2.91;75.69;99920.44;1706955;82;21045;-71
2022/12/30 06:58:34;;;;;;;28.75;19.17;;;;;;;2.91;75.68;99927.48;1703637;82;21081;-69
2022/12/30 07:01:00;;;;;;;22.22;16.27;;;;;;;2.93;75.65;99925.09;1706819;82;21264;-67
2022/12/30 07:03:27;;;;;;;24.32;16.35;;;;;;;3.04;75.33;99921.68;1707742;82;21065;-70
2022/12/30 07:05:53;;;;;;;28.92;18.00;;;;;;;3.07;75.07;99921.46;1703708;82;21014;-68
2022/12/30 07:08:21;;;;;;;27.90;18.77;;;;;;;3.02;75.07;99927.52;1713611;81;21100;-70
2022/12/30 07:10:48;;;;;;;30.02;17.55;;;;;;;2.99;75.59;99931.67;1716560;82;21061;-68
2022/12/30 07:13:15;;;;;;;28.47;18.48;;;;;;;3.08;75.34;99936.72;1718774;82;21535;-71
2022/12/30 07:15:41;;;;;;;28.57;18.25;;;;;;;3.13;74.96;99925.41;1720195;82;21503;-70
2022/12/30 07:18:08;;;;;;;27.87;18.07;;;;;;;3.13;74.96;99925.41;1733499;82;21486;-71
2022/12/30 07:20:35;;;;;;;28.32;17.00;;;;;;;3.11;74.97;99931.23;1721567;82;20998;-70
2022/12/30 07:23:01;;;;;;;28.17;19.42;;;;;;;3.06;75.13;99934.69;1713200;82;21089;-71
2022/12/30 07:25:28;;;;;;;29.98;19.70;;;;;;;3.06;75.13;99934.69;1714066;82;21254;-71
2022/12/30 07:28:01;;;;;;;27.13;18.07;;;;;;;3.07;75.21;99947.71;1705717;81;21057;-72
2022/12/30 07:30:27;;;;;;;33.17;20.27;;;;;;;3.19;74.90;99944.63;1725507;82;21063;-70
2022/12/30 07:32:54;;;;;;;41.40;27.25;;;;;;;3.20;74.71;99933.16;1721166;82;21321;-70
2022/12/30 07:35:22;;;;;;;34.27;25.37;;;;;;;3.19;74.79;99934.59;1719029;82;21073;-71
2022/12/30 07:37:50;;;;;;;27.62;18.73;;;;;;;3.16;74.94;99933.04;1708453;82;21807;-68
2022/12/30 07:42:29;;;;;;;31.77;19.87;;;;;;;3.33;74.80;99927.34;1867786;76;23573;-70
2022/12/30 07:44:55;;;;;;;29.25;19.30;;;;;;;3.37;74.65;99925.33;1799698;77;21053;-70
2022/12/30 07:47:22;;;;;;;29.05;18.92;;;;;;;3.39;74.59;99930.47;1817606;77;21202;-70
2022/12/30 07:49:48;;;;;;;30.15;19.57;;;;;;;3.44;74.44;99921.73;1824004;77;21110;-70
2022/12/30 07:52:15;;;;;;;26.65;17.90;;;;;;;3.45;74.27;99924.25;1841793;76;21507;-69
2022/12/30 07:54:41;;;;;;;28.10;19.27;;;;;;;3.56;74.36;99928.69;1821028;77;21493;-70
2022/12/30 07:57:08;;;;;;;26.17;17.82;;;;;;;3.56;74.36;99928.69;1817482;78;21034;-70
2022/12/30 07:59:34;;;;;;;28.25;18.05;;;;;;;3.68;73.84;99936.92;1813930;77;21133;-72
2022/12/30 08:02:01;;;;;;;27.48;17.92;;;;;;;3.70;73.66;99937.64;1805269;77;21001;-70
2022/12/30 08:04:31;;;;;;;27.07;18.48;;;;;;;3.71;73.69;99936.70;1856690;76;21140;-70
2022/12/30 08:06:57;;;;;;;30.65;22.73;;;;;;;3.75;73.61;99937.30;1819548;77;20986;-68
2022/12/30 08:09:24;;;;;;;27.42;19.82;;;;;;;3.76;73.36;99941.58;1853230;77;21068;-69
2022/12/30 08:11:51;;;;;;;26.42;18.07;;;;;;;3.76;73.54;99930.25;1813302;77;21168;-70
2022/12/30 08:14:18;;;;;;;25.20;16.95;;;;;;;3.80;73.59;99926.42;1808707;77;21513;-69
2022/12/30 08:16:44;;;;;;;29.02;18.12;;;;;;;3.99;73.32;99938.95;1826402;78;21018;-70
2022/12/30 08:19:10;;;;;;;28.07;19.85;;;;;;;4.07;72.96;99942.63;1826247;78;21506;-72
2022/12/30 08:21:37;;;;;;;27.48;19.30;;;;;;;4.08;72.78;99950.89;1826413;78;21548;-73
2022/12/30 08:24:05;;;;;;;32.33;19.87;;;;;;;4.06;72.67;99954.61;1826351;78;21398;-73
2022/12/30 08:26:32;;;;;;;31.20;21.77;;;;;;;4.02;72.68;99953.16;1826380;78;21342;-73
2022/12/30 08:28:58;;;;;;;31.33;22.82;;;;;;;4.01;72.87;99954.95;1796478;78;21083;-70
2022/12/30 08:31:27;;;;;;;29.90;21.80;;;;;;;4.00;73.03;99949.36;1809152;77;21782;-69
2022/12/30 08:33:53;;;;;;;30.57;21.68;;;;;;;4.03;73.13;99957.47;1819441;77;21104;-70
2022/12/30 08:36:23;;;;;;;33.18;22.30;;;;;;;4.15;72.86;99953.86;1842200;76;21122;-70
2022/12/30 08:38:53;;;;;;;34.53;22.90;;;;;;;4.22;72.60;99955.05;1790986;77;21016;-69
2022/12/30 08:41:33;;;;;;;28.95;21.62;;;;;;;4.26;72.66;99959.59;1804568;77;21490;-68
2022/12/30 08:44:00;;;;;;;29.95;22.05;;;;;;;4.27;72.47;99958.16;1814710;77;20994;-68
2022/12/30 08:46:28;;;;;;;32.28;21.57;;;;;;;4.31;72.49;99966.16;1810761;77;21044;-68
2022/12/30 08:48:54;;;;;;;27.17;20.70;;;;;;;4.34;72.29;99955.37;1840126;77;21125;-69
2022/12/30 08:51:21;;;;;;;30.88;21.27;;;;;;;4.38;72.14;99952.03;1840885;77;20979;-69
2022/12/30 08:53:48;;;;;;;29.60;20.80;;;;;;;4.43;71.84;99959.08;1813880;77;21081;-70
2022/12/30 08:56:17;;;;;;;30.23;20.90;;;;;;;4.45;71.78;99954.53;1801438;77;21121;-69
2022/12/30 08:58:44;;;;;;;30.00;21.05;;;;;;;4.58;71.29;99962.28;1819497;77;21042;-70
2022/12/30 09:01:15;;;;;;;29.00;21.77;;;;;;;4.60;71.33;99960.84;1829468;78;21835;-70
2022/12/30 09:03:42;;;;;;;30.15;21.82;;;;;;;4.57;71.48;99962.40;1814557;78;21003;-69
2022/12/30 09:06:10;;;;;;;30.68;21.68;;;;;;;4.56;71.55;99960.71;1814686;78;21513;-68
2022/12/30 09:08:36;;;;;;;29.20;22.05;;;;;;;4.53;71.64;99971.02;1814587;77;21002;-68
2022/12/30 09:11:09;;;;;;;34.55;23.95;;;;;;;4.51;71.88;99967.19;1814543;79;21073;-69
2022/12/30 09:13:36;;;;;;;36.53;23.73;;;;;;;4.51;71.98;99982.97;1814592;79;21116;-70
2022/12/30 09:16:06;;;;;;;31.65;20.88;;;;;;;4.54;72.10;99956.91;1814627;79;22490;-69
2022/12/30 09:18:34;;;;;;;32.30;20.80;;;;;;;4.63;71.97;99961.89;1804450;78;21002;-68
2022/12/30 09:21:01;;;;;;;38.00;23.22;;;;;;;4.77;71.66;99960.31;1799266;77;21010;-70
2022/12/30 09:23:27;;;;;;;33.58;23.80;;;;;;;4.76;71.50;99950.73;1814571;79;20962;-69
2022/12/30 09:25:54;;;;;;;33.33;23.40;;;;;;;4.78;71.65;99953.23;1814447;79;21133;-70
2022/12/30 09:28:20;;;;;;;32.48;20.77;;;;;;;4.81;71.59;99947.25;1814473;77;21045;-69
2022/12/30 09:30:48;;;;;;;28.23;20.57;;;;;;;4.83;71.38;99939.20;1814612;78;21100;-70
2022/12/30 09:33:15;;;;;;;30.85;19.87;;;;;;;4.84;71.34;99955.36;1814625;78;21034;-71
2022/12/30 09:35:42;;;;;;;23.40;17.52;;;;;;;4.86;71.36;99959.53;1802532;79;21038;-69
2022/12/30 09:38:08;;;;;;;24.00;18.67;;;;;;;4.88;71.27;99951.02;1809174;77;21079;-72
2022/12/30 09:41:05;;;;;;;25.82;17.75;;;;;;;4.92;71.25;99932.72;1814455;78;22892;-69
2022/12/30 09:44:03;;;;;;;23.02;18.05;;;;;;;4.97;71.07;99931.02;1813726;78;21474;-70
2022/12/30 09:46:50;;;;;;;22.42;17.02;;;;;;;5.03;71.06;99937.08;1814455;79;21473;-69
2022/12/30 09:49:25;;;;;;;25.62;16.87;;;;;;;5.06;70.82;99926.30;1803402;79;21019;-69
2022/12/30 09:52:06;;;;;;;22.42;17.27;;;;;;;5.10;70.75;99928.20;1812987;79;22125;-68
2022/12/30 09:54:32;;;;;;;26.70;17.87;;;;;;;5.17;70.68;99922.75;1782486;79;21612;-69
2022/12/30 09:57:30;;;;;;;27.27;18.07;;;;;;;5.49;70.26;99917.89;1782664;80;21003;-70
2022/12/30 09:59:32;;;;;;;27.05;18.55;;;;;;;5.91;68.88;99913.84;1784809;79;21581;-70
2022/12/30 10:02:19;;;;;;;25.88;17.45;;;;;;;6.26;67.96;99913.89;1807533;79;21066;-69
2022/12/30 10:04:46;;;;;;;27.85;19.77;;;;;;;6.43;67.65;99914.54;1814521;78;21117;-71
2022/12/30 10:07:36;;;;;;;32.53;20.97;;;;;;;6.47;67.31;99908.02;1814603;78;21482;-69
2022/12/30 10:10:30;;;;;;;26.25;18.25;;;;;;;6.43;67.07;99907.08;1797590;78;21537;-69
2022/12/30 10:13:16;;;;;;;24.67;17.70;;;;;;;6.33;67.12;99920.76;1781904;78;21025;-70
2022/12/30 10:16:03;;;;;;;27.70;18.67;;;;;;;6.19;67.54;99914.08;1771329;81;21085;-69
2022/12/30 10:18:44;;;;;;;27.22;19.32;;;;;;;6.06;67.86;99912.98;1771286;81;21221;-66
2022/12/30 10:21:40;;;;;;;28.85;20.77;;;;;;;5.96;68.16;99912.97;1771041;81;21563;-69
2022/12/30 10:24:31;;;;;;;27.15;20.45;;;;;;;5.86;68.43;99911.58;1771286;79;21512;-69
2022/12/30 10:26:57;;;;;;;27.87;20.43;;;;;;;5.77;68.88;99915.02;1793258;79;21002;-71
2022/12/30 10:29:31;;;;;;;27.02;19.70;;;;;;;5.69;69.17;99903.81;1814489;79;21061;-69
2022/12/30 10:31:59;;;;;;;;;;;;;;;5.65;69.50;99905.05;1817527;79;21088;-70
2022/12/30 10:34:30;;;;;;;25.17;19.17;;;;;;;5.64;69.60;99903.39;1814499;79;20210;-70
2022/12/30 10:37:07;;;;;;;24.37;18.70;;;;;;;5.64;69.77;99892.00;1814377;79;21033;-70
2022/12/30 10:39:46;;;;;;;24.65;19.25;;;;;;;5.68;69.97;99898.70;1829849;78;21037;-70
2022/12/30 10:42:36;;;;;;;27.37;19.92;;;;;;;5.74;70.03;99906.07;1814644;78;21490;-70
2022/12/30 10:45:27;;;;;;;28.25;19.70;;;;;;;5.77;69.97;99907.11;1800549;77;21271;-67
2022/12/30 10:48:41;;;;;;;25.77;19.48;;;;;;;5.80;69.78;99898.11;1813320;78;21054;-69
2022/12/30 10:51:09;;;;;;;24.37;17.32;;;;;;;5.81;69.75;99899.77;1814405;78;20978;-69
2022/12/30 10:53:37;;;;;;;25.68;18.17;;;;;;;5.80;69.92;99902.89;1814039;78;21490;-69
2022/12/30 10:56:08;;;;;;;29.95;20.32;;;;;;;5.79;69.92;99894.63;1815076;77;21076;-69
2022/12/30 10:58:44;;;;;;;24.98;18.05;;;;;;;5.82;69.99;99889.09;1829936;77;21118;-70
2022/12/30 11:01:33;;;;;;;28.55;19.57;;;;;;;5.86;69.90;99882.58;1809514;79;21002;-70
2022/12/30 11:04:00;;;;;;;24.90;18.70;;;;;;;5.99;69.71;99881.52;1814430;77;20975;-70
2022/12/30 11:06:37;;;;;;;29.63;20.70;;;;;;;6.21;69.46;99869.92;1814372;77;21057;-68
2022/12/30 11:09:17;;;;;;;23.38;18.85;;;;;;;6.42;68.82;99878.55;1830521;78;21002;-69
2022/12/30 11:14:42;;;;;;;23.30;18.32;;;;;;;6.58;67.96;99870.08;1814438;79;20997;-70
2022/12/30 11:17:20;;;;;;;24.80;19.57;;;;;;;6.60;67.87;99865.48;1809583;79;21084;-70
2022/12/30 11:20:01;;;;;;;27.62;19.62;;;;;;;6.58;67.73;99870.56;1768867;80;21073;-69
2022/12/30 11:22:27;;;;;;;26.93;19.75;;;;;;;6.53;67.90;99878.06;1782035;79;21006;-69
2022/12/30 11:24:59;;;;;;;30.15;20.92;;;;;;;6.45;67.89;99883.56;1785213;77;21714;-70
2022/12/30 11:27:31;;;;;;;27.00;21.48;;;;;;;6.38;68.12;99882.44;1814368;79;20990;-69
2022/12/30 11:29:58;;;;;;;29.40;19.55;;;;;;;6.31;68.39;99882.63;1814423;78;21462;-69
2022/12/30 11:32:24;;;;;;;27.35;19.05;;;;;;;6.25;68.65;99883.19;1814800;78;21010;-70
2022/12/30 11:34:51;;;;;;;23.98;19.48;;;;;;;6.21;68.80;99883.94;1800514;79;21002;-69
2022/12/30 11:37:34;;;;;;;28.57;19.90;;;;;;;6.18;68.99;99882.05;1782486;79;21116;-70
2022/12/30 11:40:32;;;;;;;24.75;18.80;;;;;;;6.14;69.15;99890.72;1796567;79;21533;-68
2022/12/30 11:43:17;;;;;;;27.17;18.73;;;;;;;6.11;69.27;99887.05;1822122;78;21022;-68
2022/12/30 11:46:04;;;;;;;23.42;17.65;;;;;;;6.05;69.48;99888.92;1825992;78;20974;-68
2022/12/30 11:48:38;;;;;;;27.27;18.27;;;;;;;6.00;69.66;99887.98;1819317;78;21037;-70
2022/12/30 11:51:25;;;;;;;28.87;20.23;;;;;;;5.93;69.99;99877.63;1797859;78;21081;-69
2022/12/30 11:54:12;;;;;;;24.43;19.35;;;;;;;5.90;70.18;99868.16;1825910;78;21064;-69
2022/12/30 11:57:05;;;;;;;29.52;16.65;;;;;;;5.84;70.74;99859.47;1826193;78;21596;-70
2022/12/30 11:59:36;;;;;;;21.02;15.88;;;;;;;5.91;70.94;99865.88;1813807;78;21036;-69
2022/12/30 12:02:07;;;;;;;23.83;17.25;;;;;;;5.96;70.87;99864.18;1825934;78;21029;-69
2022/12/30 12:04:41;;;;;;;20.77;16.95;;;;;;;5.95;70.87;99851.09;1824914;78;21258;-69
2022/12/30 12:07:26;;;;;;;;;;;;;;;5.92;71.17;99861.44;1828994;78;21060;-69
2022/12/30 12:10:15;;;;;;;28.10;19.20;;;;;;;5.89;71.63;99870.92;1797569;78;20183;-70
2022/12/30 12:12:47;;;;;;;23.45;19.05;;;;;;;5.87;71.75;99873.72;1793377;80;20997;-69
2022/12/30 12:15:34;;;;;;;27.60;18.35;;;;;;;5.83;71.97;99883.33;1793590;79;21481;-70
2022/12/30 12:18:15;;;;;;;25.05;19.92;;;;;;;5.81;72.25;99879.99;1793543;80;21172;-70
2022/12/30 12:21:11;;;;;;;24.77;17.98;;;;;;;5.89;72.19;99874.41;1793580;79;20986;-70
2022/12/30 12:24:07;;;;;;;26.73;19.27;;;;;;;5.94;72.05;99872.68;1822764;78;21009;-68
2022/12/30 12:26:42;;;;;;;25.48;18.17;;;;;;;5.89;72.02;99875.73;1801562;78;21446;-70
2022/12/30 12:29:11;;;;;;;25.97;19.75;;;;;;;5.85;72.14;99875.66;1793675;80;21647;-70
2022/12/30 12:32:02;;;;;;;26.85;19.60;;;;;;;5.83;72.29;99879.37;1793745;80;21219;-70
2022/12/30 12:34:58;;;;;;;24.98;18.67;;;;;;;5.82;72.30;99893.55;1803331;78;21025;-69
2022/12/30 12:37:33;;;;;;;26.57;19.42;;;;;;;5.81;72.22;99894.49;1826063;78;21536;-69
2022/12/30 12:40:23;;;;;;;29.98;20.62;;;;;;;5.81;72.27;99887.91;1826137;78;21018;-70
2022/12/30 12:43:01;;;;;;;28.05;21.37;;;;;;;5.91;72.04;99886.98;1819422;78;21556;-69
2022/12/30 12:45:58;;;;;;;29.18;21.05;;;;;;;5.93;71.90;99900.50;1814840;78;21155;-69
2022/12/30 12:48:40;;;;;;;30.62;22.02;;;;;;;5.88;72.03;99893.83;1814513;79;21061;-70
2022/12/30 12:51:33;;;;;;;30.60;21.63;;;;;;;5.84;72.27;99898.20;1814600;79;20998;-69